sensor_id;sensor_type;location;lat;lon;timestamp;temperature;humidity
51733;DHT22;39139;53.144;6.244;2022-09-23T00:00:35;9.50;99.90
51733;DHT22;39139;53.144;6.244;2022-09-23T00:03:01;9.50;99.90
51733;DHT22;39139;53.144;6.244;2022-09-23T00:05:28;9.50;99.90
51733;DHT22;39139;53.144;6.244;2022-09-23T00:07:54;9.40;99.90
51733;DHT22;39139;53.144;6.244;2022-09-23T00:10:21;9.40;99.90
51733;DHT22;39139;53.144;6.244;2022-09-23T00:12:47;9.40;99.90
51733;DHT22;39139;53.144;6.244;2022-09-23T00:15:13;9.40;99.90
51733;DHT22;39139;53.144;6.244;2022-09-23T00:17:38;9.40;99.90
51733;DHT22;39139;53.144;6.244;2022-09-23T00:20:05;9.40;99.90
51733;DHT22;39139;53.144;6.244;2022-09-23T00:22:32;9.40;99.90
51733;DHT22;39139;53.144;6.244;2022-09-23T00:24:58;9.40;99.90
51733;DHT22;39139;53.144;6.244;2022-09-23T00:27:24;9.40;99.90
51733;DHT22;39139;53.144;6.244;2022-09-23T00:29:50;9.30;99.90
51733;DHT22;39139;53.144;6.244;2022-09-23T00:32:16;9.30;99.90
51733;DHT22;39139;53.144;6.244;2022-09-23T00:34:43;9.40;99.90
51733;DHT22;39139;53.144;6.244;2022-09-23T00:37:09;9.30;99.90
51733;DHT22;39139;53.144;6.244;2022-09-23T00:39:35;9.30;99.90
51733;DHT22;39139;53.144;6.244;2022-09-23T00:42:00;9.30;99.90
51733;DHT22;39139;53.144;6.244;2022-09-23T00:44:49;9.20;99.90
51733;DHT22;39139;53.144;6.244;2022-09-23T00:47:34;9.30;99.90
51733;DHT22;39139;53.144;6.244;2022-09-23T00:50:11;9.20;99.90
51733;DHT22;39139;53.144;6.244;2022-09-23T00:52:38;9.20;99.90
51733;DHT22;39139;53.144;6.244;2022-09-23T00:55:08;9.40;99.90
51733;DHT22;39139;53.144;6.244;2022-09-23T00:57:35;8.80;99.90
51733;DHT22;39139;53.144;6.244;2022-09-23T01:00:04;9.20;99.90
51733;DHT22;39139;53.144;6.244;2022-09-23T01:02:30;9.20;99.90
51733;DHT22;39139;53.144;6.244;2022-09-23T01:04:56;9.20;99.90
51733;DHT22;39139;53.144;6.244;2022-09-23T01:07:22;9.20;99.90
51733;DHT22;39139;53.144;6.244;2022-09-23T01:09:48;9.20;99.90
51733;DHT22;39139;53.144;6.244;2022-09-23T01:15:19;9.10;99.90
51733;DHT22;39139;53.144;6.244;2022-09-23T01:32:02;9.20;99.90
51733;DHT22;39139;53.144;6.244;2022-09-23T01:42:48;9.20;99.90
51733;DHT22;39139;53.144;6.244;2022-09-23T01:45:19;9.20;99.90
51733;DHT22;39139;53.144;6.244;2022-09-23T01:47:58;9.20;99.90
51733;DHT22;39139;53.144;6.244;2022-09-23T01:50:32;9.30;99.90
51733;DHT22;39139;53.144;6.244;2022-09-23T01:53:58;9.30;99.90
51733;DHT22;39139;53.144;6.244;2022-09-23T01:56:33;9.30;99.90
51733;DHT22;39139;53.144;6.244;2022-09-23T01:59:19;9.30;99.90
51733;DHT22;39139;53.144;6.244;2022-09-23T02:04:28;9.30;99.90
51733;DHT22;39139;53.144;6.244;2022-09-23T02:07:01;9.30;99.90
51733;DHT22;39139;53.144;6.244;2022-09-23T02:09:30;9.20;99.90
51733;DHT22;39139;53.144;6.244;2022-09-23T02:12:03;9.20;99.90
51733;DHT22;39139;53.144;6.244;2022-09-23T02:14:45;9.20;99.90
51733;DHT22;39139;53.144;6.244;2022-09-23T02:17:16;9.20;99.90
51733;DHT22;39139;53.144;6.244;2022-09-23T02:19:51;9.20;99.90
51733;DHT22;39139;53.144;6.244;2022-09-23T02:22:26;9.10;99.90
51733;DHT22;39139;53.144;6.244;2022-09-23T02:24:54;9.10;99.90
51733;DHT22;39139;53.144;6.244;2022-09-23T02:27:29;9.10;99.90
51733;DHT22;39139;53.144;6.244;2022-09-23T02:30:09;9.00;99.90
51733;DHT22;39139;53.144;6.244;2022-09-23T02:35:38;9.00;99.90
51733;DHT22;39139;53.144;6.244;2022-09-23T02:43:58;8.70;99.90
51733;DHT22;39139;53.144;6.244;2022-09-23T02:46:25;8.70;99.90
51733;DHT22;39139;53.144;6.244;2022-09-23T02:48:53;8.60;99.90
51733;DHT22;39139;53.144;6.244;2022-09-23T02:51:21;8.50;99.90
51733;DHT22;39139;53.144;6.244;2022-09-23T02:53:50;8.40;99.90
51733;DHT22;39139;53.144;6.244;2022-09-23T02:56:19;8.50;99.90
51733;DHT22;39139;53.144;6.244;2022-09-23T02:58:49;8.40;99.90
51733;DHT22;39139;53.144;6.244;2022-09-23T03:07:09;8.30;99.90
51733;DHT22;39139;53.144;6.244;2022-09-23T03:14:52;8.30;99.90
51733;DHT22;39139;53.144;6.244;2022-09-23T03:22:44;8.20;99.90
51733;DHT22;39139;53.144;6.244;2022-09-23T03:25:14;8.10;99.90
51733;DHT22;39139;53.144;6.244;2022-09-23T03:27:41;8.10;99.90
51733;DHT22;39139;53.144;6.244;2022-09-23T03:30:09;8.20;99.90
51733;DHT22;39139;53.144;6.244;2022-09-23T03:32:36;8.20;99.90
51733;DHT22;39139;53.144;6.244;2022-09-23T03:35:03;8.20;99.90
51733;DHT22;39139;53.144;6.244;2022-09-23T03:37:38;8.20;99.90
51733;DHT22;39139;53.144;6.244;2022-09-23T03:42:45;8.20;99.90
51733;DHT22;39139;53.144;6.244;2022-09-23T03:45:17;8.10;99.90
51733;DHT22;39139;53.144;6.244;2022-09-23T03:47:44;8.20;99.90
51733;DHT22;39139;53.144;6.244;2022-09-23T03:50:12;8.10;99.90
51733;DHT22;39139;53.144;6.244;2022-09-23T03:52:38;8.20;99.90
51733;DHT22;39139;53.144;6.244;2022-09-23T03:55:08;8.10;99.90
51733;DHT22;39139;53.144;6.244;2022-09-23T03:57:34;8.10;99.90
51733;DHT22;39139;53.144;6.244;2022-09-23T04:00:00;8.10;99.90
51733;DHT22;39139;53.144;6.244;2022-09-23T04:02:26;8.10;99.90
51733;DHT22;39139;53.144;6.244;2022-09-23T04:04:51;8.00;99.90
51733;DHT22;39139;53.144;6.244;2022-09-23T04:07:17;8.00;99.90
51733;DHT22;39139;53.144;6.244;2022-09-23T04:09:43;8.00;99.90
51733;DHT22;39139;53.144;6.244;2022-09-23T04:12:12;8.00;99.90
51733;DHT22;39139;53.144;6.244;2022-09-23T04:14:38;7.90;99.90
51733;DHT22;39139;53.144;6.244;2022-09-23T04:17:04;7.90;99.90
51733;DHT22;39139;53.144;6.244;2022-09-23T04:19:29;7.90;99.90
51733;DHT22;39139;53.144;6.244;2022-09-23T04:21:55;7.90;99.90
51733;DHT22;39139;53.144;6.244;2022-09-23T04:24:21;7.90;99.90
51733;DHT22;39139;53.144;6.244;2022-09-23T04:26:50;7.80;99.90
51733;DHT22;39139;53.144;6.244;2022-09-23T04:29:17;7.80;99.90
51733;DHT22;39139;53.144;6.244;2022-09-23T04:31:42;7.80;99.90
51733;DHT22;39139;53.144;6.244;2022-09-23T04:34:08;7.80;99.90
51733;DHT22;39139;53.144;6.244;2022-09-23T04:36:34;7.80;99.90
51733;DHT22;39139;53.144;6.244;2022-09-23T04:39:00;7.80;99.90
51733;DHT22;39139;53.144;6.244;2022-09-23T04:41:26;7.80;99.90
51733;DHT22;39139;53.144;6.244;2022-09-23T04:43:52;7.80;99.90
51733;DHT22;39139;53.144;6.244;2022-09-23T04:46:18;7.70;99.90
51733;DHT22;39139;53.144;6.244;2022-09-23T04:48:43;7.70;99.90
51733;DHT22;39139;53.144;6.244;2022-09-23T04:51:18;7.90;99.90
51733;DHT22;39139;53.144;6.244;2022-09-23T04:53:46;7.80;99.90
51733;DHT22;39139;53.144;6.244;2022-09-23T04:56:17;7.80;99.90
51733;DHT22;39139;53.144;6.244;2022-09-23T04:58:44;7.70;99.90
51733;DHT22;39139;53.144;6.244;2022-09-23T05:01:25;7.80;99.90
51733;DHT22;39139;53.144;6.244;2022-09-23T05:03:54;7.80;99.90
51733;DHT22;39139;53.144;6.244;2022-09-23T05:06:21;7.80;99.90
51733;DHT22;39139;53.144;6.244;2022-09-23T05:08:52;7.80;99.90
51733;DHT22;39139;53.144;6.244;2022-09-23T05:11:19;8.10;99.90
51733;DHT22;39139;53.144;6.244;2022-09-23T05:13:50;7.80;99.90
51733;DHT22;39139;53.144;6.244;2022-09-23T05:16:16;7.90;99.90
51733;DHT22;39139;53.144;6.244;2022-09-23T05:18:43;7.90;99.90
51733;DHT22;39139;53.144;6.244;2022-09-23T05:21:12;8.00;99.90
51733;DHT22;39139;53.144;6.244;2022-09-23T05:23:38;8.00;99.90
51733;DHT22;39139;53.144;6.244;2022-09-23T05:26:10;8.00;99.90
51733;DHT22;39139;53.144;6.244;2022-09-23T05:28:36;8.00;99.90
51733;DHT22;39139;53.144;6.244;2022-09-23T05:31:15;8.10;99.90
51733;DHT22;39139;53.144;6.244;2022-09-23T05:33:43;8.20;99.90
51733;DHT22;39139;53.144;6.244;2022-09-23T05:36:10;8.10;99.90
51733;DHT22;39139;53.144;6.244;2022-09-23T05:38:36;8.20;99.90
51733;DHT22;39139;53.144;6.244;2022-09-23T05:41:06;8.20;99.90
51733;DHT22;39139;53.144;6.244;2022-09-23T05:43:32;8.20;99.90
51733;DHT22;39139;53.144;6.244;2022-09-23T05:48:37;8.30;99.90
51733;DHT22;39139;53.144;6.244;2022-09-23T05:51:04;8.50;99.90
51733;DHT22;39139;53.144;6.244;2022-09-23T05:53:31;8.30;99.90
51733;DHT22;39139;53.144;6.244;2022-09-23T05:55:57;8.40;99.90
51733;DHT22;39139;53.144;6.244;2022-09-23T05:58:23;8.40;99.90
51733;DHT22;39139;53.144;6.244;2022-09-23T06:00:50;8.60;99.90
51733;DHT22;39139;53.144;6.244;2022-09-23T06:03:18;8.40;99.90
51733;DHT22;39139;53.144;6.244;2022-09-23T06:05:44;8.50;99.90
51733;DHT22;39139;53.144;6.244;2022-09-23T06:08:11;8.50;99.90
51733;DHT22;39139;53.144;6.244;2022-09-23T06:10:41;8.50;99.90
51733;DHT22;39139;53.144;6.244;2022-09-23T06:13:07;8.60;99.90
51733;DHT22;39139;53.144;6.244;2022-09-23T06:15:34;8.60;99.90
51733;DHT22;39139;53.144;6.244;2022-09-23T06:18:00;8.70;99.90
51733;DHT22;39139;53.144;6.244;2022-09-23T06:20:25;8.70;99.90
51733;DHT22;39139;53.144;6.244;2022-09-23T06:22:52;8.70;99.90
51733;DHT22;39139;53.144;6.244;2022-09-23T06:25:18;8.90;99.90
51733;DHT22;39139;53.144;6.244;2022-09-23T06:27:51;8.90;99.90
51733;DHT22;39139;53.144;6.244;2022-09-23T06:30:19;8.90;99.90
51733;DHT22;39139;53.144;6.244;2022-09-23T06:32:49;9.00;99.90
51733;DHT22;39139;53.144;6.244;2022-09-23T06:35:18;9.00;99.90
51733;DHT22;39139;53.144;6.244;2022-09-23T06:37:44;9.10;99.90
51733;DHT22;39139;53.144;6.244;2022-09-23T06:40:11;9.10;99.90
51733;DHT22;39139;53.144;6.244;2022-09-23T06:42:36;9.20;99.90
51733;DHT22;39139;53.144;6.244;2022-09-23T06:45:02;9.20;99.90
51733;DHT22;39139;53.144;6.244;2022-09-23T06:47:28;9.30;99.90
51733;DHT22;39139;53.144;6.244;2022-09-23T06:49:54;9.30;99.90
51733;DHT22;39139;53.144;6.244;2022-09-23T06:52:20;9.30;99.90
51733;DHT22;39139;53.144;6.244;2022-09-23T06:54:46;9.30;99.90
51733;DHT22;39139;53.144;6.244;2022-09-23T06:57:14;9.40;99.90
51733;DHT22;39139;53.144;6.244;2022-09-23T06:59:40;9.50;99.90
51733;DHT22;39139;53.144;6.244;2022-09-23T07:02:10;9.40;99.90
51733;DHT22;39139;53.144;6.244;2022-09-23T07:04:36;9.40;99.90
51733;DHT22;39139;53.144;6.244;2022-09-23T07:07:02;9.40;99.90
51733;DHT22;39139;53.144;6.244;2022-09-23T07:09:28;9.50;99.90
51733;DHT22;39139;53.144;6.244;2022-09-23T07:11:53;9.50;99.90
51733;DHT22;39139;53.144;6.244;2022-09-23T07:14:19;9.50;99.90
51733;DHT22;39139;53.144;6.244;2022-09-23T07:16:48;9.60;99.90
51733;DHT22;39139;53.144;6.244;2022-09-23T07:19:13;9.60;99.90
51733;DHT22;39139;53.144;6.244;2022-09-23T07:21:39;9.70;99.90
51733;DHT22;39139;53.144;6.244;2022-09-23T07:24:05;9.70;99.90
51733;DHT22;39139;53.144;6.244;2022-09-23T07:26:32;9.80;99.90
51733;DHT22;39139;53.144;6.244;2022-09-23T07:28:59;9.90;99.90
51733;DHT22;39139;53.144;6.244;2022-09-23T07:31:30;9.90;99.90
51733;DHT22;39139;53.144;6.244;2022-09-23T07:33:57;10.00;99.90
51733;DHT22;39139;53.144;6.244;2022-09-23T07:36:23;10.10;99.90
51733;DHT22;39139;53.144;6.244;2022-09-23T07:38:49;10.10;99.90
51733;DHT22;39139;53.144;6.244;2022-09-23T07:41:17;10.20;99.90
51733;DHT22;39139;53.144;6.244;2022-09-23T07:43:45;10.30;99.90
51733;DHT22;39139;53.144;6.244;2022-09-23T07:46:14;10.40;99.90
51733;DHT22;39139;53.144;6.244;2022-09-23T07:48:41;10.40;99.90
51733;DHT22;39139;53.144;6.244;2022-09-23T07:51:12;10.50;99.90
51733;DHT22;39139;53.144;6.244;2022-09-23T07:53:39;10.50;99.90
51733;DHT22;39139;53.144;6.244;2022-09-23T07:56:05;10.50;99.90
51733;DHT22;39139;53.144;6.244;2022-09-23T07:58:31;10.60;99.90
51733;DHT22;39139;53.144;6.244;2022-09-23T08:01:23;10.60;99.90
51733;DHT22;39139;53.144;6.244;2022-09-23T08:03:49;10.70;99.90
51733;DHT22;39139;53.144;6.244;2022-09-23T08:06:14;10.70;99.90
51733;DHT22;39139;53.144;6.244;2022-09-23T08:08:40;10.70;99.90
51733;DHT22;39139;53.144;6.244;2022-09-23T08:11:10;11.80;99.90
51733;DHT22;39139;53.144;6.244;2022-09-23T08:13:36;10.80;99.90
51733;DHT22;39139;53.144;6.244;2022-09-23T08:16:02;10.90;99.90
51733;DHT22;39139;53.144;6.244;2022-09-23T08:18:28;10.90;99.90
51733;DHT22;39139;53.144;6.244;2022-09-23T08:20:54;11.00;99.90
51733;DHT22;39139;53.144;6.244;2022-09-23T08:23:20;11.10;99.90
51733;DHT22;39139;53.144;6.244;2022-09-23T08:25:46;11.20;99.90
51733;DHT22;39139;53.144;6.244;2022-09-23T08:28:15;11.30;99.90
51733;DHT22;39139;53.144;6.244;2022-09-23T08:30:44;11.40;99.90
51733;DHT22;39139;53.144;6.244;2022-09-23T08:33:11;11.40;99.90
51733;DHT22;39139;53.144;6.244;2022-09-23T08:35:36;11.50;99.90
51733;DHT22;39139;53.144;6.244;2022-09-23T08:38:02;11.60;99.90
51733;DHT22;39139;53.144;6.244;2022-09-23T08:40:28;11.60;99.90
51733;DHT22;39139;53.144;6.244;2022-09-23T08:42:54;11.70;99.90
51733;DHT22;39139;53.144;6.244;2022-09-23T08:45:23;11.80;99.90
51733;DHT22;39139;53.144;6.244;2022-09-23T08:47:59;11.90;99.90
51733;DHT22;39139;53.144;6.244;2022-09-23T08:50:38;11.90;99.90
51733;DHT22;39139;53.144;6.244;2022-09-23T08:53:12;11.90;99.90
51733;DHT22;39139;53.144;6.244;2022-09-23T08:55:47;12.00;99.90
51733;DHT22;39139;53.144;6.244;2022-09-23T09:03:39;12.10;99.90
51733;DHT22;39139;53.144;6.244;2022-09-23T09:06:06;12.10;99.90
51733;DHT22;39139;53.144;6.244;2022-09-23T09:08:37;12.30;99.90
51733;DHT22;39139;53.144;6.244;2022-09-23T09:11:04;12.40;99.90
51733;DHT22;39139;53.144;6.244;2022-09-23T09:13:36;12.50;99.90
51733;DHT22;39139;53.144;6.244;2022-09-23T09:16:31;12.60;99.90
51733;DHT22;39139;53.144;6.244;2022-09-23T09:19:33;12.70;99.90
51733;DHT22;39139;53.144;6.244;2022-09-23T09:22:01;12.80;99.90
51733;DHT22;39139;53.144;6.244;2022-09-23T09:24:33;12.90;99.90
51733;DHT22;39139;53.144;6.244;2022-09-23T09:27:04;12.90;99.90
51733;DHT22;39139;53.144;6.244;2022-09-23T09:29:37;13.00;99.90
51733;DHT22;39139;53.144;6.244;2022-09-23T09:34:50;13.00;99.90
51733;DHT22;39139;53.144;6.244;2022-09-23T09:37:22;13.00;99.90
51733;DHT22;39139;53.144;6.244;2022-09-23T09:39:48;13.10;99.90
51733;DHT22;39139;53.144;6.244;2022-09-23T09:42:20;13.10;99.90
51733;DHT22;39139;53.144;6.244;2022-09-23T09:47:43;13.10;99.90
51733;DHT22;39139;53.144;6.244;2022-09-23T09:50:44;13.10;99.90
51733;DHT22;39139;53.144;6.244;2022-09-23T09:53:44;13.00;99.90
51733;DHT22;39139;53.144;6.244;2022-09-23T09:56:13;13.10;99.90
51733;DHT22;39139;53.144;6.244;2022-09-23T09:58:45;13.20;99.90
51733;DHT22;39139;53.144;6.244;2022-09-23T10:01:26;13.20;99.90
51733;DHT22;39139;53.144;6.244;2022-09-23T10:03:55;13.30;99.90
51733;DHT22;39139;53.144;6.244;2022-09-23T10:06:30;13.30;99.90
51733;DHT22;39139;53.144;6.244;2022-09-23T10:09:15;13.30;99.90
51733;DHT22;39139;53.144;6.244;2022-09-23T10:12:14;13.30;99.90
51733;DHT22;39139;53.144;6.244;2022-09-23T10:14:44;13.40;99.90
51733;DHT22;39139;53.144;6.244;2022-09-23T10:19:49;13.50;99.90
51733;DHT22;39139;53.144;6.244;2022-09-23T10:22:23;13.70;99.90
51733;DHT22;39139;53.144;6.244;2022-09-23T10:24:51;13.50;99.90
51733;DHT22;39139;53.144;6.244;2022-09-23T10:27:27;13.60;99.90
51733;DHT22;39139;53.144;6.244;2022-09-23T10:29:55;13.50;99.90
51733;DHT22;39139;53.144;6.244;2022-09-23T10:32:33;13.70;99.90
51733;DHT22;39139;53.144;6.244;2022-09-23T10:40:13;13.90;99.90
51733;DHT22;39139;53.144;6.244;2022-09-23T10:46:28;14.10;99.90
51733;DHT22;39139;53.144;6.244;2022-09-23T10:52:33;14.20;99.90
51733;DHT22;39139;53.144;6.244;2022-09-23T11:00:22;14.30;99.90
51733;DHT22;39139;53.144;6.244;2022-09-23T11:05:47;14.40;99.90
51733;DHT22;39139;53.144;6.244;2022-09-23T11:21:59;14.60;99.90
51733;DHT22;39139;53.144;6.244;2022-09-23T11:24:30;14.60;99.90
51733;DHT22;39139;53.144;6.244;2022-09-23T11:27:23;14.60;99.90
51733;DHT22;39139;53.144;6.244;2022-09-23T11:33:14;14.70;99.90
51733;DHT22;39139;53.144;6.244;2022-09-23T11:35:20;14.70;99.90
51733;DHT22;39139;53.144;6.244;2022-09-23T11:37:51;14.70;99.90
51733;DHT22;39139;53.144;6.244;2022-09-23T11:40:22;14.80;99.90
51733;DHT22;39139;53.144;6.244;2022-09-23T11:45:31;14.80;99.90
51733;DHT22;39139;53.144;6.244;2022-09-23T11:48:22;14.90;99.90
51733;DHT22;39139;53.144;6.244;2022-09-23T11:51:00;14.90;99.90
51733;DHT22;39139;53.144;6.244;2022-09-23T11:53:48;14.90;99.90
51733;DHT22;39139;53.144;6.244;2022-09-23T11:56:27;14.90;99.90
51733;DHT22;39139;53.144;6.244;2022-09-23T11:59:15;14.80;99.90
51733;DHT22;39139;53.144;6.244;2022-09-23T12:01:53;14.80;99.90
51733;DHT22;39139;53.144;6.244;2022-09-23T12:04:33;14.80;99.90
51733;DHT22;39139;53.144;6.244;2022-09-23T12:07:08;14.80;99.90
51733;DHT22;39139;53.144;6.244;2022-09-23T12:09:45;14.80;99.90
51733;DHT22;39139;53.144;6.244;2022-09-23T12:18:13;14.80;99.90
51733;DHT22;39139;53.144;6.244;2022-09-23T12:23:58;14.80;99.90
51733;DHT22;39139;53.144;6.244;2022-09-23T12:26:28;14.80;99.90
51733;DHT22;39139;53.144;6.244;2022-09-23T12:28:59;14.80;99.90
51733;DHT22;39139;53.144;6.244;2022-09-23T12:31:27;14.70;99.90
51733;DHT22;39139;53.144;6.244;2022-09-23T12:33:58;14.70;99.90
51733;DHT22;39139;53.144;6.244;2022-09-23T12:36:29;14.70;99.90
51733;DHT22;39139;53.144;6.244;2022-09-23T12:39:03;14.70;99.90
51733;DHT22;39139;53.144;6.244;2022-09-23T12:41:37;14.70;99.90
51733;DHT22;39139;53.144;6.244;2022-09-23T12:46:42;14.70;99.90
51733;DHT22;39139;53.144;6.244;2022-09-23T12:54:48;14.70;99.90
51733;DHT22;39139;53.144;6.244;2022-09-23T13:05:22;14.80;99.90
51733;DHT22;39139;53.144;6.244;2022-09-23T13:08:13;14.80;99.90
51733;DHT22;39139;53.144;6.244;2022-09-23T13:10:43;14.80;99.90
51733;DHT22;39139;53.144;6.244;2022-09-23T13:13:35;14.70;99.90
51733;DHT22;39139;53.144;6.244;2022-09-23T13:16:34;14.70;99.90
51733;DHT22;39139;53.144;6.244;2022-09-23T13:19:05;14.80;99.90
51733;DHT22;39139;53.144;6.244;2022-09-23T13:24:34;14.70;99.90
51733;DHT22;39139;53.144;6.244;2022-09-23T13:27:26;14.70;99.90
51733;DHT22;39139;53.144;6.244;2022-09-23T13:32:39;14.70;99.90
51733;DHT22;39139;53.144;6.244;2022-09-23T13:37:41;14.60;99.90
51733;DHT22;39139;53.144;6.244;2022-09-23T13:40:19;14.60;99.90
51733;DHT22;39139;53.144;6.244;2022-09-23T13:43:16;14.60;99.90
51733;DHT22;39139;53.144;6.244;2022-09-23T13:45:44;14.60;99.90
51733;DHT22;39139;53.144;6.244;2022-09-23T13:48:14;14.60;99.90
51733;DHT22;39139;53.144;6.244;2022-09-23T13:50:44;14.60;99.90
51733;DHT22;39139;53.144;6.244;2022-09-23T13:53:18;14.60;99.90
51733;DHT22;39139;53.144;6.244;2022-09-23T13:55:44;14.60;99.90
51733;DHT22;39139;53.144;6.244;2022-09-23T13:58:19;14.50;99.90
51733;DHT22;39139;53.144;6.244;2022-09-23T14:00:45;14.50;99.90
51733;DHT22;39139;53.144;6.244;2022-09-23T14:05:43;14.50;99.90
51733;DHT22;39139;53.144;6.244;2022-09-23T14:08:09;14.50;99.90
51733;DHT22;39139;53.144;6.244;2022-09-23T14:10:35;14.50;99.90
51733;DHT22;39139;53.144;6.244;2022-09-23T14:13:04;14.50;99.90
51733;DHT22;39139;53.144;6.244;2022-09-23T14:15:29;14.50;99.90
51733;DHT22;39139;53.144;6.244;2022-09-23T14:18:02;14.40;99.90
51733;DHT22;39139;53.144;6.244;2022-09-23T14:20:29;14.40;99.90
51733;DHT22;39139;53.144;6.244;2022-09-23T14:23:05;14.40;99.90
51733;DHT22;39139;53.144;6.244;2022-09-23T14:25:31;14.40;99.90
51733;DHT22;39139;53.144;6.244;2022-09-23T14:27:58;14.40;99.90
51733;DHT22;39139;53.144;6.244;2022-09-23T14:30:25;14.30;99.90
51733;DHT22;39139;53.144;6.244;2022-09-23T14:32:51;14.40;99.90
51733;DHT22;39139;53.144;6.244;2022-09-23T14:35:19;14.30;99.90
51733;DHT22;39139;53.144;6.244;2022-09-23T14:37:48;14.30;99.90
51733;DHT22;39139;53.144;6.244;2022-09-23T14:40:34;14.40;99.90
51733;DHT22;39139;53.144;6.244;2022-09-23T14:45:35;14.30;99.90
51733;DHT22;39139;53.144;6.244;2022-09-23T14:48:06;14.40;99.90
51733;DHT22;39139;53.144;6.244;2022-09-23T14:50:33;14.30;99.90
51733;DHT22;39139;53.144;6.244;2022-09-23T14:55:54;14.20;99.90
51733;DHT22;39139;53.144;6.244;2022-09-23T15:06:49;14.10;99.90
51733;DHT22;39139;53.144;6.244;2022-09-23T15:09:23;14.20;99.90
51733;DHT22;39139;53.144;6.244;2022-09-23T15:11:51;14.20;99.90
51733;DHT22;39139;53.144;6.244;2022-09-23T15:14:17;14.20;99.90
51733;DHT22;39139;53.144;6.244;2022-09-23T15:16:45;14.20;99.90
51733;DHT22;39139;53.144;6.244;2022-09-23T15:19:16;14.20;99.90
51733;DHT22;39139;53.144;6.244;2022-09-23T15:21:45;14.20;99.90
51733;DHT22;39139;53.144;6.244;2022-09-23T15:24:31;14.30;99.90
51733;DHT22;39139;53.144;6.244;2022-09-23T15:26:58;14.30;99.90
51733;DHT22;39139;53.144;6.244;2022-09-23T15:29:23;14.20;99.90
51733;DHT22;39139;53.144;6.244;2022-09-23T15:31:50;14.20;99.90
51733;DHT22;39139;53.144;6.244;2022-09-23T15:34:16;14.20;99.90
51733;DHT22;39139;53.144;6.244;2022-09-23T15:36:43;14.10;99.90
51733;DHT22;39139;53.144;6.244;2022-09-23T15:39:10;15.00;99.90
51733;DHT22;39139;53.144;6.244;2022-09-23T15:41:36;14.20;99.90
51733;DHT22;39139;53.144;6.244;2022-09-23T15:44:14;14.20;99.90
51733;DHT22;39139;53.144;6.244;2022-09-23T15:46:48;14.30;99.90
51733;DHT22;39139;53.144;6.244;2022-09-23T15:49:31;14.30;99.90
51733;DHT22;39139;53.144;6.244;2022-09-23T15:51:59;14.20;99.90
51733;DHT22;39139;53.144;6.244;2022-09-23T15:54:26;14.20;99.90
51733;DHT22;39139;53.144;6.244;2022-09-23T15:56:52;14.30;99.90
51733;DHT22;39139;53.144;6.244;2022-09-23T15:59:17;14.30;99.90
51733;DHT22;39139;53.144;6.244;2022-09-23T16:01:43;14.20;99.90
51733;DHT22;39139;53.144;6.244;2022-09-23T16:04:10;14.20;99.90
51733;DHT22;39139;53.144;6.244;2022-09-23T16:06:38;14.20;99.90
51733;DHT22;39139;53.144;6.244;2022-09-23T16:09:04;14.20;99.90
51733;DHT22;39139;53.144;6.244;2022-09-23T16:11:30;14.20;99.90
51733;DHT22;39139;53.144;6.244;2022-09-23T16:13:59;14.10;99.90
51733;DHT22;39139;53.144;6.244;2022-09-23T16:16:26;14.20;99.90
51733;DHT22;39139;53.144;6.244;2022-09-23T16:18:55;14.20;99.90
51733;DHT22;39139;53.144;6.244;2022-09-23T16:21:23;14.20;99.90
51733;DHT22;39139;53.144;6.244;2022-09-23T16:23:50;14.10;99.90
51733;DHT22;39139;53.144;6.244;2022-09-23T16:26:32;14.10;99.90
51733;DHT22;39139;53.144;6.244;2022-09-23T16:28:59;14.20;99.90
51733;DHT22;39139;53.144;6.244;2022-09-23T16:31:25;14.10;99.90
51733;DHT22;39139;53.144;6.244;2022-09-23T16:33:53;14.10;99.90
51733;DHT22;39139;53.144;6.244;2022-09-23T16:36:23;14.00;99.90
51733;DHT22;39139;53.144;6.244;2022-09-23T16:38:50;14.00;99.90
51733;DHT22;39139;53.144;6.244;2022-09-23T16:41:16;14.10;99.90
51733;DHT22;39139;53.144;6.244;2022-09-23T16:43:41;14.00;99.90
51733;DHT22;39139;53.144;6.244;2022-09-23T16:46:11;14.00;99.90
51733;DHT22;39139;53.144;6.244;2022-09-23T16:48:38;14.00;99.90
51733;DHT22;39139;53.144;6.244;2022-09-23T16:51:12;14.00;99.90
51733;DHT22;39139;53.144;6.244;2022-09-23T16:53:38;14.00;99.90
51733;DHT22;39139;53.144;6.244;2022-09-23T16:56:08;13.90;99.90
51733;DHT22;39139;53.144;6.244;2022-09-23T16:58:36;14.00;99.90
51733;DHT22;39139;53.144;6.244;2022-09-23T17:01:03;13.90;99.90
51733;DHT22;39139;53.144;6.244;2022-09-23T17:03:48;13.90;99.90
51733;DHT22;39139;53.144;6.244;2022-09-23T17:06:14;13.80;99.90
51733;DHT22;39139;53.144;6.244;2022-09-23T17:08:41;13.80;99.90
51733;DHT22;39139;53.144;6.244;2022-09-23T17:11:08;13.80;99.90
51733;DHT22;39139;53.144;6.244;2022-09-23T17:13:35;13.80;99.90
51733;DHT22;39139;53.144;6.244;2022-09-23T17:16:01;13.80;99.90
51733;DHT22;39139;53.144;6.244;2022-09-23T17:18:27;13.80;99.90
51733;DHT22;39139;53.144;6.244;2022-09-23T17:23:23;13.80;99.90
51733;DHT22;39139;53.144;6.244;2022-09-23T17:25:51;13.80;99.90
51733;DHT22;39139;53.144;6.244;2022-09-23T17:28:16;13.70;99.90
51733;DHT22;39139;53.144;6.244;2022-09-23T17:30:42;13.60;99.90
51733;DHT22;39139;53.144;6.244;2022-09-23T17:33:08;13.60;99.90
51733;DHT22;39139;53.144;6.244;2022-09-23T17:35:38;13.60;99.90
51733;DHT22;39139;53.144;6.244;2022-09-23T17:38:03;13.60;99.90
51733;DHT22;39139;53.144;6.244;2022-09-23T17:40:29;13.60;99.90
51733;DHT22;39139;53.144;6.244;2022-09-23T17:42:55;13.60;99.90
51733;DHT22;39139;53.144;6.244;2022-09-23T17:45:21;13.50;99.90
51733;DHT22;39139;53.144;6.244;2022-09-23T17:47:46;13.60;99.90
51733;DHT22;39139;53.144;6.244;2022-09-23T17:50:20;13.50;99.90
51733;DHT22;39139;53.144;6.244;2022-09-23T17:52:47;13.50;99.90
51733;DHT22;39139;53.144;6.244;2022-09-23T17:55:12;13.50;99.90
51733;DHT22;39139;53.144;6.244;2022-09-23T17:57:38;13.50;99.90
51733;DHT22;39139;53.144;6.244;2022-09-23T18:00:04;13.50;99.90
51733;DHT22;39139;53.144;6.244;2022-09-23T18:02:30;13.50;99.90
51733;DHT22;39139;53.144;6.244;2022-09-23T18:04:55;13.60;99.90
51733;DHT22;39139;53.144;6.244;2022-09-23T18:07:21;13.50;99.90
51733;DHT22;39139;53.144;6.244;2022-09-23T18:09:47;13.50;99.90
51733;DHT22;39139;53.144;6.244;2022-09-23T18:12:12;13.50;99.90
51733;DHT22;39139;53.144;6.244;2022-09-23T18:14:39;13.40;99.90
51733;DHT22;39139;53.144;6.244;2022-09-23T18:17:05;13.50;99.90
51733;DHT22;39139;53.144;6.244;2022-09-23T18:19:31;13.50;99.90
51733;DHT22;39139;53.144;6.244;2022-09-23T18:21:56;13.40;99.90
51733;DHT22;39139;53.144;6.244;2022-09-23T18:24:23;13.40;99.90
51733;DHT22;39139;53.144;6.244;2022-09-23T18:26:48;13.50;99.90
51733;DHT22;39139;53.144;6.244;2022-09-23T18:29:15;13.40;99.90
51733;DHT22;39139;53.144;6.244;2022-09-23T18:31:41;13.30;99.90
51733;DHT22;39139;53.144;6.244;2022-09-23T18:34:13;13.40;99.90
51733;DHT22;39139;53.144;6.244;2022-09-23T18:36:43;13.40;99.90
51733;DHT22;39139;53.144;6.244;2022-09-23T18:39:09;13.50;99.90